sensor_id;sensor_type;location;lat;lon;timestamp;pressure;altitude;pressure_sealevel;temperature;humidity
75852;BME280;64500;52.632;20.656;2023-03-01T00:01:08;101760.94;;;-5.41;76.54
75852;BME280;64500;52.632;20.656;2023-03-01T00:03:36;101758.38;;;-5.43;76.87
75852;BME280;64500;52.632;20.656;2023-03-01T00:06:04;101755.33;;;-5.46;76.85
75852;BME280;64500;52.632;20.656;2023-03-01T00:08:33;101760.75;;;-5.47;76.95
75852;BME280;64500;52.632;20.656;2023-03-01T00:13:39;101758.73;;;-5.46;77.17
75852;BME280;64500;52.632;20.656;2023-03-01T00:16:10;101757.45;;;-5.48;77.08
75852;BME280;64500;52.632;20.656;2023-03-01T00:18:37;101757.73;;;-5.48;77.25
75852;BME280;64500;52.632;20.656;2023-03-01T00:21:05;101762.08;;;-5.48;77.29
75852;BME280;64500;52.632;20.656;2023-03-01T00:23:34;101761.26;;;-5.47;77.44
75852;BME280;64500;52.632;20.656;2023-03-01T00:26:05;101766.19;;;-5.46;77.61
75852;BME280;64500;52.632;20.656;2023-03-01T00:28:34;101760.65;;;-5.43;77.83
75852;BME280;64500;52.632;20.656;2023-03-01T00:31:06;101757.69;;;-5.41;77.88
75852;BME280;64500;52.632;20.656;2023-03-01T00:33:34;101758.27;;;-5.40;77.86
75852;BME280;64500;52.632;20.656;2023-03-01T00:36:01;101755.48;;;-5.38;77.96
75852;BME280;64500;52.632;20.656;2023-03-01T00:38:29;101746.41;;;-5.40;77.78
75852;BME280;64500;52.632;20.656;2023-03-01T00:41:06;101744.39;;;-5.39;78.05
75852;BME280;64500;52.632;20.656;2023-03-01T00:43:34;101739.89;;;-5.36;77.96
75852;BME280;64500;52.632;20.656;2023-03-01T00:46:08;101737.59;;;-5.37;77.78
75852;BME280;64500;52.632;20.656;2023-03-01T00:48:35;101734.36;;;-5.37;78.02
75852;BME280;64500;52.632;20.656;2023-03-01T00:53:37;101734.29;;;-5.38;77.84
75852;BME280;64500;52.632;20.656;2023-03-01T00:56:06;101731.98;;;-5.39;77.97
75852;BME280;64500;52.632;20.656;2023-03-01T00:58:33;101725.36;;;-5.40;77.94
75852;BME280;64500;52.632;20.656;2023-03-01T01:01:06;101726.64;;;-5.39;78.16
75852;BME280;64500;52.632;20.656;2023-03-01T01:03:33;101735.39;;;-5.37;78.14
75852;BME280;64500;52.632;20.656;2023-03-01T01:06:00;101742.30;;;-5.36;78.33
75852;BME280;64500;52.632;20.656;2023-03-01T01:08:37;101742.44;;;-5.34;78.29
75852;BME280;64500;52.632;20.656;2023-03-01T01:11:04;101740.24;;;-5.33;78.30
75852;BME280;64500;52.632;20.656;2023-03-01T01:13:31;101739.45;;;-5.32;78.33
75852;BME280;64500;52.632;20.656;2023-03-01T01:16:01;101737.35;;;-5.30;78.33
75852;BME280;64500;52.632;20.656;2023-03-01T01:18:28;101735.55;;;-5.29;78.33
75852;BME280;64500;52.632;20.656;2023-03-01T01:20:56;101732.80;;;-5.28;78.27
75852;BME280;64500;52.632;20.656;2023-03-01T01:23:23;101729.33;;;-5.29;78.39
75852;BME280;64500;52.632;20.656;2023-03-01T01:25:50;101722.54;;;-5.30;78.35
75852;BME280;64500;52.632;20.656;2023-03-01T01:28:17;101718.17;;;-5.31;78.33
75852;BME280;64500;52.632;20.656;2023-03-01T01:30:44;101708.52;;;-5.31;78.21
75852;BME280;64500;52.632;20.656;2023-03-01T01:33:11;101706.17;;;-5.32;78.15
75852;BME280;64500;52.632;20.656;2023-03-01T01:35:38;101709.07;;;-5.33;78.14
75852;BME280;64500;52.632;20.656;2023-03-01T01:38:05;101704.39;;;-5.33;78.36
75852;BME280;64500;52.632;20.656;2023-03-01T01:40:33;101705.92;;;-5.34;78.34
75852;BME280;64500;52.632;20.656;2023-03-01T01:43:00;101706.42;;;-5.34;78.50
75852;BME280;64500;52.632;20.656;2023-03-01T01:45:36;101707.56;;;-5.32;78.53
75852;BME280;64500;52.632;20.656;2023-03-01T01:48:07;101709.52;;;-5.28;78.58
75852;BME280;64500;52.632;20.656;2023-03-01T01:50:39;101707.69;;;-5.27;78.81
75852;BME280;64500;52.632;20.656;2023-03-01T01:53:15;101706.24;;;-5.26;78.75
75852;BME280;64500;52.632;20.656;2023-03-01T01:55:51;101710.69;;;-5.26;78.88
75852;BME280;64500;52.632;20.656;2023-03-01T01:58:21;101714.77;;;-5.27;78.77
75852;BME280;64500;52.632;20.656;2023-03-01T02:00:48;101707.01;;;-5.25;79.06
75852;BME280;64500;52.632;20.656;2023-03-01T02:03:28;101705.52;;;-5.23;78.83
75852;BME280;64500;52.632;20.656;2023-03-01T02:06:28;101706.98;;;-5.25;78.82
75852;BME280;64500;52.632;20.656;2023-03-01T02:09:05;101700.53;;;-5.29;78.52
75852;BME280;64500;52.632;20.656;2023-03-01T02:11:33;101697.58;;;-5.32;78.52
75852;BME280;64500;52.632;20.656;2023-03-01T02:14:04;101693.52;;;-5.33;78.78
75852;BME280;64500;52.632;20.656;2023-03-01T02:16:32;101683.43;;;-5.35;78.60
75852;BME280;64500;52.632;20.656;2023-03-01T02:19:00;101686.29;;;-5.36;78.76
75852;BME280;64500;52.632;20.656;2023-03-01T02:21:44;101683.22;;;-5.36;78.82
75852;BME280;64500;52.632;20.656;2023-03-01T02:24:32;101676.24;;;-5.31;79.29
75852;BME280;64500;52.632;20.656;2023-03-01T02:27:03;101664.95;;;-5.33;79.11
75852;BME280;64500;52.632;20.656;2023-03-01T02:29:31;101654.45;;;-5.35;78.95
75852;BME280;64500;52.632;20.656;2023-03-01T02:32:00;101652.63;;;-5.37;78.92
75852;BME280;64500;52.632;20.656;2023-03-01T02:34:30;101653.55;;;-5.36;79.09
75852;BME280;64500;52.632;20.656;2023-03-01T02:37:06;101646.35;;;-5.36;79.00
75852;BME280;64500;52.632;20.656;2023-03-01T02:39:42;101642.79;;;-5.35;79.01
75852;BME280;64500;52.632;20.656;2023-03-01T02:42:14;101639.59;;;-5.33;79.12
75852;BME280;64500;52.632;20.656;2023-03-01T02:44:43;101631.35;;;-5.33;79.17
75852;BME280;64500;52.632;20.656;2023-03-01T02:47:10;101631.89;;;-5.30;79.29
75852;BME280;64500;52.632;20.656;2023-03-01T02:49:37;101637.48;;;-5.26;79.64
75852;BME280;64500;52.632;20.656;2023-03-01T02:54:51;101644.92;;;-5.16;80.07
75852;BME280;64500;52.632;20.656;2023-03-01T02:57:21;101646.95;;;-5.08;80.27
75852;BME280;64500;52.632;20.656;2023-03-01T02:59:50;101640.48;;;-5.04;80.01
75852;BME280;64500;52.632;20.656;2023-03-01T03:02:21;101642.06;;;-5.03;79.71
75852;BME280;64500;52.632;20.656;2023-03-01T03:05:12;101648.36;;;-5.04;79.67
75852;BME280;64500;52.632;20.656;2023-03-01T03:07:41;101646.16;;;-5.04;79.84
75852;BME280;64500;52.632;20.656;2023-03-01T03:10:18;101637.79;;;-5.02;79.76
75852;BME280;64500;52.632;20.656;2023-03-01T03:12:51;101641.56;;;-5.03;79.77
75852;BME280;64500;52.632;20.656;2023-03-01T03:15:19;101638.31;;;-5.05;79.64
75852;BME280;64500;52.632;20.656;2023-03-01T03:17:47;101644.66;;;-5.06;79.78
75852;BME280;64500;52.632;20.656;2023-03-01T03:20:17;101645.11;;;-5.04;79.75
75852;BME280;64500;52.632;20.656;2023-03-01T03:22:49;101645.95;;;-5.01;79.79
75852;BME280;64500;52.632;20.656;2023-03-01T03:25:17;101637.45;;;-5.03;79.79
75852;BME280;64500;52.632;20.656;2023-03-01T03:27:46;101634.69;;;-5.05;79.68
75852;BME280;64500;52.632;20.656;2023-03-01T03:30:16;101631.50;;;-5.10;79.47
75852;BME280;64500;52.632;20.656;2023-03-01T03:32:45;101629.00;;;-5.11;79.39
75852;BME280;64500;52.632;20.656;2023-03-01T03:35:20;101626.61;;;-5.11;79.52
75852;BME280;64500;52.632;20.656;2023-03-01T03:37:48;101626.67;;;-5.10;79.82
75852;BME280;64500;52.632;20.656;2023-03-01T03:40:35;101617.63;;;-5.08;79.69
75852;BME280;64500;52.632;20.656;2023-03-01T03:43:04;101625.61;;;-5.07;79.64
75852;BME280;64500;52.632;20.656;2023-03-01T03:45:34;101619.10;;;-5.07;79.67
75852;BME280;64500;52.632;20.656;2023-03-01T03:48:02;101614.50;;;-5.05;79.70
75852;BME280;64500;52.632;20.656;2023-03-01T03:50:30;101609.23;;;-5.04;79.67
75852;BME280;64500;52.632;20.656;2023-03-01T03:52:59;101609.89;;;-5.02;79.97
75852;BME280;64500;52.632;20.656;2023-03-01T03:55:26;101610.74;;;-4.99;79.87
75852;BME280;64500;52.632;20.656;2023-03-01T03:57:58;101614.60;;;-4.95;80.20
75852;BME280;64500;52.632;20.656;2023-03-01T04:00:28;101609.28;;;-4.86;80.67
75852;BME280;64500;52.632;20.656;2023-03-01T04:02:55;101606.36;;;-4.77;80.83
75852;BME280;64500;52.632;20.656;2023-03-01T04:05:23;101604.05;;;-4.72;80.36
75852;BME280;64500;52.632;20.656;2023-03-01T04:07:50;101601.28;;;-4.69;80.33
75852;BME280;64500;52.632;20.656;2023-03-01T04:10:36;101598.14;;;-4.66;80.41
75852;BME280;64500;52.632;20.656;2023-03-01T04:13:05;101591.11;;;-4.66;80.16
75852;BME280;64500;52.632;20.656;2023-03-01T04:15:34;101593.87;;;-4.65;79.99
75852;BME280;64500;52.632;20.656;2023-03-01T04:18:04;101588.58;;;-4.64;79.97
75852;BME280;64500;52.632;20.656;2023-03-01T04:20:34;101585.56;;;-4.63;80.16
75852;BME280;64500;52.632;20.656;2023-03-01T04:23:05;101584.59;;;-4.62;79.87
75852;BME280;64500;52.632;20.656;2023-03-01T04:25:53;101579.36;;;-4.59;80.02
75852;BME280;64500;52.632;20.656;2023-03-01T04:28:22;101576.48;;;-4.59;80.05
75852;BME280;64500;52.632;20.656;2023-03-01T04:30:52;101578.93;;;-4.58;79.99
75852;BME280;64500;52.632;20.656;2023-03-01T04:33:19;101575.59;;;-4.59;79.94
75852;BME280;64500;52.632;20.656;2023-03-01T04:35:47;101576.30;;;-4.59;79.90
75852;BME280;64500;52.632;20.656;2023-03-01T04:38:18;101572.88;;;-4.59;79.80
75852;BME280;64500;52.632;20.656;2023-03-01T04:40:45;101567.30;;;-4.59;79.67
75852;BME280;64500;52.632;20.656;2023-03-01T04:43:13;101561.27;;;-4.59;79.79
75852;BME280;64500;52.632;20.656;2023-03-01T04:45:41;101552.29;;;-4.59;79.93
75852;BME280;64500;52.632;20.656;2023-03-01T04:48:08;101553.89;;;-4.58;79.92
75852;BME280;64500;52.632;20.656;2023-03-01T04:50:35;101559.05;;;-4.59;79.81
75852;BME280;64500;52.632;20.656;2023-03-01T04:53:03;101564.75;;;-4.59;79.71
75852;BME280;64500;52.632;20.656;2023-03-01T04:55:29;101569.02;;;-4.59;79.90
75852;BME280;64500;52.632;20.656;2023-03-01T04:57:58;101569.23;;;-4.59;80.18
75852;BME280;64500;52.632;20.656;2023-03-01T05:00:24;101565.34;;;-4.58;79.93
75852;BME280;64500;52.632;20.656;2023-03-01T05:02:58;101568.27;;;-4.58;79.99
75852;BME280;64500;52.632;20.656;2023-03-01T05:05:32;101567.55;;;-4.58;79.82
75852;BME280;64500;52.632;20.656;2023-03-01T05:08:05;101568.73;;;-4.58;79.89
75852;BME280;64500;52.632;20.656;2023-03-01T05:10:35;101566.92;;;-4.60;79.86
75852;BME280;64500;52.632;20.656;2023-03-01T05:13:03;101572.19;;;-4.61;79.78
75852;BME280;64500;52.632;20.656;2023-03-01T05:15:31;101569.55;;;-4.62;79.94
75852;BME280;64500;52.632;20.656;2023-03-01T05:17:59;101572.98;;;-4.59;80.27
75852;BME280;64500;52.632;20.656;2023-03-01T05:20:27;101576.23;;;-4.60;80.01
75852;BME280;64500;52.632;20.656;2023-03-01T05:22:58;101582.36;;;-4.61;79.91
75852;BME280;64500;52.632;20.656;2023-03-01T05:25:34;101578.17;;;-4.62;80.02
75852;BME280;64500;52.632;20.656;2023-03-01T05:28:11;101576.43;;;-4.63;80.02
75852;BME280;64500;52.632;20.656;2023-03-01T05:30:38;101581.36;;;-4.64;80.07
75852;BME280;64500;52.632;20.656;2023-03-01T05:33:07;101583.74;;;-4.64;79.93
75852;BME280;64500;52.632;20.656;2023-03-01T05:35:41;101589.09;;;-4.65;79.86
75852;BME280;64500;52.632;20.656;2023-03-01T05:38:09;101586.52;;;-4.64;79.80
75852;BME280;64500;52.632;20.656;2023-03-01T05:40:43;101584.45;;;-4.64;80.08
75852;BME280;64500;52.632;20.656;2023-03-01T05:43:12;101581.92;;;-4.63;79.97
75852;BME280;64500;52.632;20.656;2023-03-01T05:45:39;101580.97;;;-4.61;80.12
75852;BME280;64500;52.632;20.656;2023-03-01T05:48:08;101584.71;;;-4.59;80.03
75852;BME280;64500;52.632;20.656;2023-03-01T05:50:46;101593.14;;;-4.57;80.17
75852;BME280;64500;52.632;20.656;2023-03-01T05:53:19;101594.91;;;-4.53;80.23
75852;BME280;64500;52.632;20.656;2023-03-01T05:55:49;101592.99;;;-4.47;80.28
75852;BME280;64500;52.632;20.656;2023-03-01T05:58:19;101595.87;;;-4.42;80.34
75852;BME280;64500;52.632;20.656;2023-03-01T06:00:48;101597.15;;;-4.38;80.18
75852;BME280;64500;52.632;20.656;2023-03-01T06:03:16;101593.68;;;-4.32;80.25
75852;BME280;64500;52.632;20.656;2023-03-01T06:05:44;101594.52;;;-4.26;80.28
75852;BME280;64500;52.632;20.656;2023-03-01T06:08:12;101599.67;;;-4.20;80.29
75852;BME280;64500;52.632;20.656;2023-03-01T06:10:40;101599.39;;;-4.13;80.19
75852;BME280;64500;52.632;20.656;2023-03-01T06:13:07;101598.98;;;-4.04;80.47
75852;BME280;64500;52.632;20.656;2023-03-01T06:15:34;101593.77;;;-3.99;80.49
75852;BME280;64500;52.632;20.656;2023-03-01T06:18:01;101595.91;;;-3.91;80.42
75852;BME280;64500;52.632;20.656;2023-03-01T06:20:28;101601.09;;;-3.82;80.57
75852;BME280;64500;52.632;20.656;2023-03-01T06:22:55;101602.04;;;-3.73;80.44
75852;BME280;64500;52.632;20.656;2023-03-01T06:25:24;101609.23;;;-3.64;80.53
75852;BME280;64500;52.632;20.656;2023-03-01T06:27:52;101611.71;;;-3.57;80.47
75852;BME280;64500;52.632;20.656;2023-03-01T06:30:20;101601.78;;;-3.48;80.35
75852;BME280;64500;52.632;20.656;2023-03-01T06:32:48;101591.32;;;-3.40;80.47
75852;BME280;64500;52.632;20.656;2023-03-01T06:35:16;101587.55;;;-3.29;80.67
75852;BME280;64500;52.632;20.656;2023-03-01T06:37:47;101587.17;;;-3.16;80.63
75852;BME280;64500;52.632;20.656;2023-03-01T06:40:15;101582.39;;;-3.05;80.84
75852;BME280;64500;52.632;20.656;2023-03-01T06:42:47;101588.73;;;-2.92;80.78
75852;BME280;64500;52.632;20.656;2023-03-01T06:45:17;101595.19;;;-2.77;80.70
75852;BME280;64500;52.632;20.656;2023-03-01T06:47:44;101592.59;;;-2.66;80.63
75852;BME280;64500;52.632;20.656;2023-03-01T06:50:11;101593.69;;;-2.58;80.32
75852;BME280;64500;52.632;20.656;2023-03-01T06:52:39;101593.84;;;-2.48;80.39
75852;BME280;64500;52.632;20.656;2023-03-01T06:55:07;101595.11;;;-2.39;80.15
75852;BME280;64500;52.632;20.656;2023-03-01T06:57:34;101596.90;;;-2.27;80.41
75852;BME280;64500;52.632;20.656;2023-03-01T07:00:01;101596.66;;;-2.13;80.26
75852;BME280;64500;52.632;20.656;2023-03-01T07:02:28;101592.36;;;-2.02;80.18
75852;BME280;64500;52.632;20.656;2023-03-01T07:04:55;101594.48;;;-1.93;79.94
75852;BME280;64500;52.632;20.656;2023-03-01T07:07:22;101594.45;;;-1.82;80.16
75852;BME280;64500;52.632;20.656;2023-03-01T07:09:49;101589.65;;;-1.70;80.15
75852;BME280;64500;52.632;20.656;2023-03-01T07:12:16;101580.65;;;-1.54;80.44
75852;BME280;64500;52.632;20.656;2023-03-01T07:14:44;101581.39;;;-1.36;80.29
75852;BME280;64500;52.632;20.656;2023-03-01T07:17:11;101586.48;;;-1.19;80.16
75852;BME280;64500;52.632;20.656;2023-03-01T07:19:38;101590.66;;;-1.06;79.46
75852;BME280;64500;52.632;20.656;2023-03-01T07:22:05;101588.33;;;-1.00;79.17
75852;BME280;64500;52.632;20.656;2023-03-01T07:24:34;101583.27;;;-0.93;79.10
75852;BME280;64500;52.632;20.656;2023-03-01T07:27:01;101586.27;;;-0.82;78.85
75852;BME280;64500;52.632;20.656;2023-03-01T07:29:28;101589.09;;;-0.73;78.89
75852;BME280;64500;52.632;20.656;2023-03-01T07:31:55;101597.86;;;-0.66;78.56
75852;BME280;64500;52.632;20.656;2023-03-01T07:34:22;101595.30;;;-0.61;78.52
75852;BME280;64500;52.632;20.656;2023-03-01T07:36:49;101593.79;;;-0.47;78.77
75852;BME280;64500;52.632;20.656;2023-03-01T07:39:16;101592.27;;;-0.38;78.58
75852;BME280;64500;52.632;20.656;2023-03-01T07:41:43;101597.02;;;-0.22;78.72
75852;BME280;64500;52.632;20.656;2023-03-01T07:44:09;101596.30;;;-0.14;78.13
75852;BME280;64500;52.632;20.656;2023-03-01T07:46:37;101596.09;;;-0.10;77.53
75852;BME280;64500;52.632;20.656;2023-03-01T07:49:04;101589.69;;;-0.05;77.38
75852;BME280;64500;52.632;20.656;2023-03-01T07:51:31;101587.88;;;0.07;77.67
75852;BME280;64500;52.632;20.656;2023-03-01T07:53:59;101585.23;;;0.19;77.37
75852;BME280;64500;52.632;20.656;2023-03-01T07:56:25;101584.26;;;0.31;77.48
75852;BME280;64500;52.632;20.656;2023-03-01T07:58:52;101585.51;;;0.41;77.39
75852;BME280;64500;52.632;20.656;2023-03-01T08:01:21;101585.79;;;0.49;77.32
75852;BME280;64500;52.632;20.656;2023-03-01T08:03:48;101584.15;;;0.57;76.90
75852;BME280;64500;52.632;20.656;2023-03-01T08:06:16;101578.15;;;0.64;77.21
75852;BME280;64500;52.632;20.656;2023-03-01T08:08:44;101577.98;;;0.84;77.71
75852;BME280;64500;52.632;20.656;2023-03-01T08:11:13;101576.36;;;1.03;77.30
75852;BME280;64500;52.632;20.656;2023-03-01T08:13:43;101577.05;;;1.14;76.60
75852;BME280;64500;52.632;20.656;2023-03-01T08:16:12;101579.80;;;1.18;76.14
75852;BME280;64500;52.632;20.656;2023-03-01T08:18:40;101579.11;;;1.19;75.84
75852;BME280;64500;52.632;20.656;2023-03-01T08:21:12;101580.73;;;1.20;75.72
75852;BME280;64500;52.632;20.656;2023-03-01T08:23:40;101583.98;;;1.19;75.36
75852;BME280;64500;52.632;20.656;2023-03-01T08:26:14;101585.19;;;1.18;75.46
75852;BME280;64500;52.632;20.656;2023-03-01T08:28:42;101586.33;;;1.20;75.60
75852;BME280;64500;52.632;20.656;2023-03-01T08:33:48;101588.83;;;1.27;75.40
75852;BME280;64500;52.632;20.656;2023-03-01T08:36:18;101587.02;;;1.31;75.42
75852;BME280;64500;52.632;20.656;2023-03-01T08:38:46;101588.29;;;1.38;75.42
75852;BME280;64500;52.632;20.656;2023-03-01T08:41:13;101589.19;;;1.44;75.32
75852;BME280;64500;52.632;20.656;2023-03-01T08:43:41;101587.42;;;1.49;75.35
75852;BME280;64500;52.632;20.656;2023-03-01T08:46:09;101592.55;;;1.56;75.20
75852;BME280;64500;52.632;20.656;2023-03-01T08:48:36;101589.36;;;1.66;75.56
75852;BME280;64500;52.632;20.656;2023-03-01T08:51:15;101591.88;;;1.79;75.32
75852;BME280;64500;52.632;20.656;2023-03-01T08:53:43;101588.64;;;1.88;75.23
75852;BME280;64500;52.632;20.656;2023-03-01T08:56:10;101593.52;;;1.93;74.83
75852;BME280;64500;52.632;20.656;2023-03-01T08:58:37;101593.44;;;1.97;74.65
75852;BME280;64500;52.632;20.656;2023-03-01T09:01:10;101593.34;;;1.98;74.61
75852;BME280;64500;52.632;20.656;2023-03-01T09:03:37;101591.09;;;1.99;74.44
75852;BME280;64500;52.632;20.656;2023-03-01T09:06:06;101583.73;;;2.04;74.63
75852;BME280;64500;52.632;20.656;2023-03-01T09:08:35;101582.83;;;2.15;75.05
75852;BME280;64500;52.632;20.656;2023-03-01T09:11:04;101582.48;;;2.15;74.62
75852;BME280;64500;52.632;20.656;2023-03-01T09:13:32;101583.02;;;2.10;74.43
75852;BME280;64500;52.632;20.656;2023-03-01T09:16:01;101581.90;;;2.07;74.44
75852;BME280;64500;52.632;20.656;2023-03-01T09:18:29;101577.23;;;2.09;74.80
75852;BME280;64500;52.632;20.656;2023-03-01T09:21:05;101572.48;;;2.19;75.19
75852;BME280;64500;52.632;20.656;2023-03-01T09:23:38;101567.60;;;2.31;75.40
75852;BME280;64500;52.632;20.656;2023-03-01T09:26:10;101563.02;;;2.48;75.72
75852;BME280;64500;52.632;20.656;2023-03-01T09:28:38;101561.13;;;2.82;76.36
75852;BME280;64500;52.632;20.656;2023-03-01T09:31:05;101565.39;;;3.19;76.59
75852;BME280;64500;52.632;20.656;2023-03-01T09:33:33;101572.86;;;3.54;75.41
75852;BME280;64500;52.632;20.656;2023-03-01T09:36:02;101572.00;;;3.54;74.27
75852;BME280;64500;52.632;20.656;2023-03-01T09:38:30;101566.86;;;3.36;73.11
75852;BME280;64500;52.632;20.656;2023-03-01T09:41:00;101563.23;;;3.17;73.25
75852;BME280;64500;52.632;20.656;2023-03-01T09:43:47;101568.55;;;3.12;73.78
75852;BME280;64500;52.632;20.656;2023-03-01T09:46:15;101561.66;;;3.03;73.47
75852;BME280;64500;52.632;20.656;2023-03-01T09:48:56;101555.55;;;3.03;73.68
75852;BME280;64500;52.632;20.656;2023-03-01T09:51:32;101552.20;;;3.09;73.83
75852;BME280;64500;52.632;20.656;2023-03-01T09:54:04;101547.79;;;3.21;73.96
75852;BME280;64500;52.632;20.656;2023-03-01T09:56:46;101540.81;;;3.43;74.15
75852;BME280;64500;52.632;20.656;2023-03-01T09:59:30;101537.61;;;3.80;75.14
75852;BME280;64500;52.632;20.656;2023-03-01T10:02:38;101535.63;;;4.10;74.57
75852;BME280;64500;52.632;20.656;2023-03-01T10:08:34;101524.46;;;4.56;73.44
75852;BME280;64500;52.632;20.656;2023-03-01T10:11:04;101526.48;;;4.61;73.13
75852;BME280;64500;52.632;20.656;2023-03-01T10:16:22;101517.46;;;4.66;73.17
75852;BME280;64500;52.632;20.656;2023-03-01T10:18:58;101515.44;;;4.80;73.27
75852;BME280;64500;52.632;20.656;2023-03-01T10:21:27;101515.87;;;4.95;73.32
75852;BME280;64500;52.632;20.656;2023-03-01T10:24:04;101514.72;;;5.10;72.57
75852;BME280;64500;52.632;20.656;2023-03-01T10:27:00;101513.11;;;4.98;71.65
75852;BME280;64500;52.632;20.656;2023-03-01T10:29:39;101506.27;;;4.87;71.75
75852;BME280;64500;52.632;20.656;2023-03-01T10:32:10;101505.71;;;4.75;71.16
75852;BME280;64500;52.632;20.656;2023-03-01T10:34:38;101505.06;;;4.78;72.12
75852;BME280;64500;52.632;20.656;2023-03-01T10:37:14;101512.32;;;4.93;71.76
75852;BME280;64500;52.632;20.656;2023-03-01T10:40:03;101517.48;;;4.87;72.00
75852;BME280;64500;52.632;20.656;2023-03-01T10:42:48;101518.36;;;4.98;72.21
75852;BME280;64500;52.632;20.656;2023-03-01T10:47:43;101517.63;;;5.16;72.53
75852;BME280;64500;52.632;20.656;2023-03-01T10:50:20;101524.80;;;5.38;72.67
75852;BME280;64500;52.632;20.656;2023-03-01T10:53:02;101519.70;;;5.62;72.83
75852;BME280;64500;52.632;20.656;2023-03-01T10:58:18;101512.41;;;5.43;70.26
75852;BME280;64500;52.632;20.656;2023-03-01T11:03:21;101509.10;;;4.99;71.20
75852;BME280;64500;52.632;20.656;2023-03-01T11:05:54;101502.50;;;5.13;71.75
75852;BME280;64500;52.632;20.656;2023-03-01T11:13:33;101493.04;;;4.92;71.17
75852;BME280;64500;52.632;20.656;2023-03-01T11:16:05;101493.02;;;4.91;71.84
75852;BME280;64500;52.632;20.656;2023-03-01T11:18:33;101489.48;;;5.10;72.31
75852;BME280;64500;52.632;20.656;2023-03-01T11:21:01;101492.33;;;5.35;72.18
75852;BME280;64500;52.632;20.656;2023-03-01T11:23:30;101486.65;;;5.69;72.67
75852;BME280;64500;52.632;20.656;2023-03-01T11:26:02;101485.12;;;6.11;72.97
75852;BME280;64500;52.632;20.656;2023-03-01T11:28:32;101487.95;;;6.28;71.21
75852;BME280;64500;52.632;20.656;2023-03-01T11:31:05;101478.64;;;5.98;69.90
75852;BME280;64500;52.632;20.656;2023-03-01T11:33:41;101485.98;;;5.47;69.04
75852;BME280;64500;52.632;20.656;2023-03-01T11:36:29;101486.22;;;5.15;70.01
75852;BME280;64500;52.632;20.656;2023-03-01T11:39:20;101489.09;;;5.19;71.50
75852;BME280;64500;52.632;20.656;2023-03-01T11:42:00;101487.33;;;5.29;71.92
75852;BME280;64500;52.632;20.656;2023-03-01T11:44:30;101485.51;;;5.48;72.32
75852;BME280;64500;52.632;20.656;2023-03-01T11:47:10;101479.15;;;5.72;72.44
75852;BME280;64500;52.632;20.656;2023-03-01T11:49:53;101479.54;;;5.74;70.38
75852;BME280;64500;52.632;20.656;2023-03-01T11:55:24;101480.56;;;5.97;71.46
75852;BME280;64500;52.632;20.656;2023-03-01T11:58:08;101476.63;;;5.92;71.29
75852;BME280;64500;52.632;20.656;2023-03-01T12:03:32;101482.48;;;5.33;69.62
75852;BME280;64500;52.632;20.656;2023-03-01T12:14:51;101464.58;;;4.98;71.70
75852;BME280;64500;52.632;20.656;2023-03-01T12:26:10;101462.45;;;5.42;72.57
75852;BME280;64500;52.632;20.656;2023-03-01T12:43:16;101449.73;;;5.24;71.25
75852;BME280;64500;52.632;20.656;2023-03-01T12:48:20;101440.98;;;5.13;70.84
75852;BME280;64500;52.632;20.656;2023-03-01T12:50:53;101442.18;;;5.10;71.39
75852;BME280;64500;52.632;20.656;2023-03-01T12:53:30;101436.41;;;5.12;71.23
75852;BME280;64500;52.632;20.656;2023-03-01T12:56:02;101431.36;;;5.14;71.60
75852;BME280;64500;52.632;20.656;2023-03-01T13:01:54;101432.01;;;5.23;70.95
75852;BME280;64500;52.632;20.656;2023-03-01T13:04:50;101437.75;;;5.32;71.32
75852;BME280;64500;52.632;20.656;2023-03-01T13:07:15;101441.27;;;5.33;71.59
75852;BME280;64500;52.632;20.656;2023-03-01T13:14:58;101434.60;;;5.59;71.85
75852;BME280;64500;52.632;20.656;2023-03-01T13:17:40;101432.77;;;5.66;71.88
75852;BME280;64500;52.632;20.656;2023-03-01T13:20:11;101431.92;;;5.69;71.58
75852;BME280;64500;52.632;20.656;2023-03-01T13:22:39;101434.09;;;5.73;71.20
75852;BME280;64500;52.632;20.656;2023-03-01T13:25:13;101431.16;;;5.77;71.54
75852;BME280;64500;52.632;20.656;2023-03-01T13:27:40;101431.71;;;5.79;70.77
75852;BME280;64500;52.632;20.656;2023-03-01T13:35:51;101425.61;;;5.55;70.87
75852;BME280;64500;52.632;20.656;2023-03-01T13:41:05;101430.66;;;5.67;71.14
75852;BME280;64500;52.632;20.656;2023-03-01T13:43:35;101424.06;;;5.72;71.09
75852;BME280;64500;52.632;20.656;2023-03-01T13:46:09;101420.42;;;5.75;71.01
75852;BME280;64500;52.632;20.656;2023-03-01T13:48:38;101411.89;;;5.80;70.98
75852;BME280;64500;52.632;20.656;2023-03-01T13:51:07;101406.85;;;5.84;70.99
75852;BME280;64500;52.632;20.656;2023-03-01T13:53:42;101402.96;;;5.82;70.74
75852;BME280;64500;52.632;20.656;2023-03-01T13:56:17;101395.98;;;5.84;71.20
75852;BME280;64500;52.632;20.656;2023-03-01T13:58:51;101397.73;;;5.84;70.75
75852;BME280;64500;52.632;20.656;2023-03-01T14:01:23;101395.45;;;5.85;71.25
75852;BME280;64500;52.632;20.656;2023-03-01T14:03:51;101387.58;;;5.87;70.85
75852;BME280;64500;52.632;20.656;2023-03-01T14:06:21;101386.35;;;5.88;70.94
75852;BME280;64500;52.632;20.656;2023-03-01T14:08:49;101385.00;;;5.89;71.02
75852;BME280;64500;52.632;20.656;2023-03-01T14:16:22;101381.65;;;5.90;70.70
75852;BME280;64500;52.632;20.656;2023-03-01T14:19:01;101372.69;;;5.89;70.71
75852;BME280;64500;52.632;20.656;2023-03-01T14:21:32;101372.14;;;5.87;70.58
75852;BME280;64500;52.632;20.656;2023-03-01T14:23:59;101367.40;;;5.87;70.76
75852;BME280;64500;52.632;20.656;2023-03-01T14:26:27;101370.58;;;5.88;70.93
75852;BME280;64500;52.632;20.656;2023-03-01T14:28:54;101367.22;;;5.87;70.33
75852;BME280;64500;52.632;20.656;2023-03-01T14:33:55;101366.66;;;5.83;70.61
75852;BME280;64500;52.632;20.656;2023-03-01T14:36:29;101362.27;;;5.84;70.52